Time;durP1;ratioP1;P1;durP2;ratioP2;P2;SDS_P1;SDS_P2;PMS_P1;PMS_P2;Temp;Humidity;BMP_temperature;BMP_pressure;BME280_temperature;BME280_humidity;BME280_pressure;Samples;Min_cycle;Max_cycle;Signal;HPM_P1;HPM_P2
2022/06/01 00:00:19;;;;;;;2.30;1.40;;;;;;;18.78;47.40;100135.91;5019561;28;20403;-73
2022/06/01 00:02:47;;;;;;;5.30;1.77;;;;;;;18.76;47.36;100135.44;5027026;28;20413;-73
2022/06/01 00:05:15;;;;;;;2.03;1.63;;;;;;;18.72;47.47;100129.72;5035891;28;20488;-73
2022/06/01 00:07:42;;;;;;;2.25;1.40;;;;;;;18.70;47.42;100137.47;5025853;28;20483;-73
2022/06/01 00:10:10;;;;;;;1.98;1.42;;;;;;;18.68;47.44;100139.69;5027183;28;20501;-73
2022/06/01 00:12:39;;;;;;;1.55;1.17;;;;;;;18.63;47.55;100140.63;5026555;28;20902;-73
2022/06/01 00:15:08;;;;;;;3.50;1.50;;;;;;;18.60;47.66;100134.94;5025218;28;20419;-73
2022/06/01 00:17:36;;;;;;;1.30;1.30;;;;;;;18.58;47.80;100137.97;5022652;28;20427;-73
2022/06/01 00:20:04;;;;;;;1.58;1.42;;;;;;;18.58;47.88;100128.91;5017232;28;20410;-74
2022/06/01 00:22:31;;;;;;;5.22;1.42;;;;;;;18.57;47.94;100135.53;5027364;28;20520;-73
2022/06/01 00:24:58;;;;;;;4.07;1.40;;;;;;;18.55;48.19;100130.34;5027080;28;20428;-73
2022/06/01 00:27:27;;;;;;;5.50;1.48;;;;;;;18.50;48.23;100127.72;5033242;28;20417;-74
2022/06/01 00:29:57;;;;;;;1.50;1.45;;;;;;;18.46;48.35;100126.66;5016017;28;20450;-73
2022/06/01 00:32:26;;;;;;;1.75;1.65;;;;;;;18.44;48.46;100133.59;5022419;28;20406;-74
2022/06/01 00:34:56;;;;;;;3.10;1.75;;;;;;;18.39;48.42;100128.19;5027103;28;20505;-73
2022/06/01 00:37:25;;;;;;;1.40;1.30;;;;;;;18.36;48.59;100131.53;5031415;28;20416;-73
2022/06/01 00:39:54;;;;;;;3.28;1.65;;;;;;;18.32;48.71;100130.50;5030050;28;20453;-73
2022/06/01 00:42:27;;;;;;;1.40;1.30;;;;;;;18.28;48.71;100132.22;5045460;28;20410;-73
2022/06/01 00:44:56;;;;;;;3.50;1.40;;;;;;;18.24;48.78;100125.75;5030176;28;20424;-73
2022/06/01 00:47:28;;;;;;;1.35;1.35;;;;;;;18.21;48.85;100132.63;5053959;28;20909;-73
2022/06/01 00:50:20;;;;;;;1.95;1.50;;;;;;;18.18;49.03;100130.50;5038946;28;20411;-74
2022/06/01 00:53:27;;;;;;;1.30;1.10;;;;;;;18.13;49.15;100122.38;5028640;28;20413;-73
2022/06/01 00:56:09;;;;;;;2.20;1.83;;;;;;;18.10;49.40;100131.22;5040589;28;20401;-73
2022/06/01 00:59:01;;;;;;;2.97;1.50;;;;;;;18.08;49.25;100116.97;5050858;28;20417;-73
2022/06/01 01:01:55;;;;;;;2.08;1.40;;;;;;;18.06;49.27;100128.25;5040556;28;20963;-73
2022/06/01 01:04:23;;;;;;;2.08;1.30;;;;;;;18.04;49.14;100126.94;5060649;22;20448;-70
2022/06/01 01:06:49;;;;;;;1.33;1.17;;;;;;;18.00;49.20;100129.47;5048758;28;20428;-70
2022/06/01 01:09:14;;;;;;;1.67;1.40;;;;;;;17.98;49.17;100128.16;5048905;28;20405;-70
2022/06/01 01:11:46;;;;;;;1.88;1.15;;;;;;;17.96;49.21;100120.22;5049072;28;20774;-70
2022/06/01 01:14:14;;;;;;;1.38;1.38;;;;;;;17.94;49.14;100118.91;5041288;28;20421;-70
2022/06/01 01:16:40;;;;;;;3.75;1.70;;;;;;;17.95;48.93;100117.75;5048625;28;20768;-70
2022/06/01 01:19:16;;;;;;;3.40;1.20;;;;;;;17.92;48.92;100121.94;5043201;28;20409;-70
2022/06/01 01:22:00;;;;;;;2.15;1.30;;;;;;;17.87;48.83;100116.53;5048832;28;20409;-70
2022/06/01 01:25:21;;;;;;;2.22;1.42;;;;;;;17.81;49.07;100123.22;5047727;28;20559;-69
2022/06/01 01:27:51;;;;;;;3.20;1.43;;;;;;;17.80;49.28;100126.25;5002442;28;20424;-70
2022/06/01 01:30:25;;;;;;;1.48;1.38;;;;;;;17.77;49.36;100124.94;5048575;28;20858;-69
2022/06/01 01:32:51;;;;;;;1.10;1.10;;;;;;;17.73;49.14;100121.16;5041086;28;20960;-70
2022/06/01 01:35:16;;;;;;;1.58;1.42;;;;;;;17.71;49.05;100122.59;5051858;28;20417;-70
2022/06/01 01:37:43;;;;;;;1.33;1.23;;;;;;;17.63;49.01;100116.69;5041058;28;20899;-70
2022/06/01 01:40:09;;;;;;;2.47;1.13;;;;;;;17.59;49.16;100125.78;5052214;28;20746;-69
2022/06/01 01:42:34;;;;;;;1.27;1.17;;;;;;;17.55;49.09;100111.03;5046270;28;20451;-69
2022/06/01 01:45:09;;;;;;;2.90;1.30;;;;;;;17.52;49.10;100125.31;5051738;28;20412;-69
2022/06/01 01:47:36;;;;;;;1.30;1.30;;;;;;;17.45;49.33;100122.94;5045071;28;20474;-70
2022/06/01 01:50:02;;;;;;;1.13;1.13;;;;;;;17.43;49.22;100110.66;5052048;28;20413;-70
2022/06/01 01:52:27;;;;;;;3.90;1.58;;;;;;;17.40;49.13;100106.63;5051417;28;20397;-70
2022/06/01 01:55:06;;;;;;;2.03;1.40;;;;;;;17.40;49.08;100114.84;5051974;28;20449;-70
2022/06/01 01:57:56;;;;;;;2.67;1.48;;;;;;;17.36;49.25;100118.44;5043818;28;20410;-70
2022/06/01 02:00:31;;;;;;;1.75;1.40;;;;;;;17.28;49.42;100114.47;5046608;28;20416;-70
2022/06/01 02:03:21;;;;;;;2.08;1.25;;;;;;;17.23;49.44;100117.28;5051388;28;20950;-70
2022/06/01 02:06:17;;;;;;;1.50;1.40;;;;;;;17.20;49.63;100120.63;5050940;28;20446;-70
2022/06/01 02:08:46;;;;;;;2.00;1.50;;;;;;;17.20;49.44;100117.88;5048444;28;20424;-69
2022/06/01 02:14:21;;;;;;;5.00;1.50;;;;;;;17.22;49.48;100115.69;5051758;28;20415;-70
2022/06/01 02:17:01;;;;;;;2.37;1.50;;;;;;;17.23;49.36;100113.72;5051350;28;20750;-70
2022/06/01 02:19:29;;;;;;;1.98;1.20;;;;;;;17.21;49.49;100119.50;5050858;28;20411;-70
2022/06/01 02:21:55;;;;;;;1.70;1.60;;;;;;;17.07;49.76;100111.22;5046175;28;20413;-70
2022/06/01 02:24:23;;;;;;;3.60;1.50;;;;;;;17.06;49.79;100114.25;5049848;28;20437;-70
2022/06/01 02:26:50;;;;;;;1.60;1.50;;;;;;;17.08;49.68;100114.78;5050923;28;20417;-70
2022/06/01 02:29:21;;;;;;;2.17;1.60;;;;;;;17.12;49.65;100116.63;5050726;28;20413;-70
2022/06/01 02:31:47;;;;;;;4.75;1.35;;;;;;;17.18;49.21;100119.28;5051247;28;20415;-70
2022/06/01 02:34:13;;;;;;;1.63;1.23;;;;;;;17.18;49.31;100120.13;5051056;28;20405;-70
2022/06/01 02:36:42;;;;;;;2.20;1.30;;;;;;;17.21;49.18;100114.03;5051213;28;20926;-70
2022/06/01 02:39:10;;;;;;;2.97;1.40;;;;;;;17.20;49.20;100112.41;5046390;28;20920;-69
2022/06/01 02:44:20;;;;;;;1.67;1.55;;;;;;;17.18;49.14;100114.63;5049792;28;20899;-70
2022/06/01 02:46:45;;;;;;;2.17;1.47;;;;;;;17.15;49.32;100115.22;5050887;28;20421;-70
2022/06/01 02:49:11;;;;;;;1.95;1.50;;;;;;;17.09;49.35;100119.16;5050626;28;20915;-70
2022/06/01 02:51:36;;;;;;;1.67;1.38;;;;;;;17.06;49.28;100112.31;5050720;28;20416;-70
2022/06/01 02:54:02;;;;;;;1.50;1.40;;;;;;;17.03;49.16;100112.09;5045986;28;20413;-70
2022/06/01 02:56:28;;;;;;;2.17;1.50;;;;;;;17.02;49.12;100110.50;5051137;28;20417;-70
2022/06/01 02:58:54;;;;;;;1.70;1.60;;;;;;;16.99;49.22;100111.09;5050528;28;20409;-70
2022/06/01 03:01:19;;;;;;;2.90;1.60;;;;;;;16.97;49.19;100113.28;5050055;28;20710;-70
2022/06/01 03:03:45;;;;;;;1.98;1.60;;;;;;;16.95;49.18;100116.34;5050351;28;20416;-70
2022/06/01 03:06:10;;;;;;;1.70;1.60;;;;;;;16.93;49.24;100118.53;5050465;28;20506;-70
2022/06/01 03:08:35;;;;;;;1.90;1.73;;;;;;;16.88;49.45;100113.16;5050326;28;20411;-70
2022/06/01 03:11:01;;;;;;;3.17;1.50;;;;;;;16.86;49.60;100117.28;5050712;28;20488;-70
2022/06/01 03:13:26;;;;;;;1.97;1.50;;;;;;;16.84;49.78;100127.69;5050346;28;20425;-70
2022/06/01 03:15:53;;;;;;;1.83;1.67;;;;;;;16.77;49.87;100128.06;5043346;28;20441;-70
2022/06/01 03:18:19;;;;;;;3.55;1.55;;;;;;;16.64;50.31;100138.91;5049949;28;20421;-70
2022/06/01 03:20:45;;;;;;;2.05;1.70;;;;;;;16.57;50.53;100140.06;5049517;28;20407;-70
2022/06/01 03:23:10;;;;;;;1.53;1.43;;;;;;;16.63;50.45;100142.75;5042616;28;20416;-70
2022/06/01 03:25:38;;;;;;;3.45;1.70;;;;;;;16.64;50.28;100145.19;5038549;28;20421;-70
2022/06/01 03:28:05;;;;;;;1.70;1.60;;;;;;;16.62;50.49;100146.59;5048745;28;20772;-70
2022/06/01 03:30:31;;;;;;;1.85;1.30;;;;;;;16.49;50.84;100139.88;5048139;28;20445;-70
2022/06/01 03:32:57;;;;;;;3.17;1.93;;;;;;;16.41;51.33;100138.59;5048608;28;20967;-70
2022/06/01 03:35:25;;;;;;;2.43;1.60;;;;;;;16.43;51.15;100141.84;5049434;28;20945;-70
2022/06/01 03:37:50;;;;;;;6.93;1.80;;;;;;;16.42;51.32;100140.22;5049669;28;20467;-71
2022/06/01 03:40:18;;;;;;;1.60;1.50;;;;;;;16.43;51.27;100139.09;5049293;28;20796;-70
2022/06/01 03:42:43;;;;;;;1.92;1.65;;;;;;;16.48;51.42;100141.81;5049607;28;20405;-70
2022/06/01 03:47:55;;;;;;;3.35;1.73;;;;;;;16.50;51.61;100136.03;5049455;28;20490;-70
2022/06/01 03:50:23;;;;;;;2.53;1.92;;;;;;;16.54;51.50;100131.59;5042477;28;20397;-70
2022/06/01 03:52:49;;;;;;;3.03;1.63;;;;;;;16.57;51.56;100128.31;5049737;28;20455;-70
2022/06/01 03:55:14;;;;;;;5.95;2.60;;;;;;;16.56;51.68;100132.97;5056594;28;20409;-70
2022/06/01 03:57:41;;;;;;;2.60;2.40;;;;;;;16.55;51.70;100131.34;5051629;28;20404;-70
2022/06/01 04:00:08;;;;;;;2.05;1.90;;;;;;;16.59;51.53;100124.19;5051451;28;20401;-70
2022/06/01 04:02:34;;;;;;;5.30;1.90;;;;;;;16.66;51.45;100123.84;5051238;28;20888;-70
2022/06/01 04:04:59;;;;;;;2.13;1.93;;;;;;;16.71;51.32;100131.16;5026951;28;20423;-70
2022/06/01 04:07:26;;;;;;;3.50;2.07;;;;;;;16.71;51.28;100131.16;5044929;28;20491;-70
2022/06/01 04:09:51;;;;;;;4.18;2.15;;;;;;;16.72;51.41;100139.09;5051237;28;20852;-70
2022/06/01 04:12:17;;;;;;;8.68;1.95;;;;;;;16.70;51.41;100138.53;5051380;28;20421;-70
2022/06/01 04:14:42;;;;;;;2.27;1.90;;;;;;;16.60;51.63;100144.97;5050074;28;20402;-70
2022/06/01 04:17:07;;;;;;;3.00;2.25;;;;;;;16.55;51.88;100147.78;5046819;28;20409;-69
2022/06/01 04:19:32;;;;;;;2.20;2.10;;;;;;;16.59;51.58;100151.56;5045568;28;20418;-70
2022/06/01 04:21:58;;;;;;;2.20;2.00;;;;;;;16.64;51.67;100150.66;5044162;28;20454;-70
2022/06/01 04:24:27;;;;;;;4.80;2.30;;;;;;;16.67;51.58;100152.00;5051642;28;20389;-70
2022/06/01 04:26:53;;;;;;;1.77;1.67;;;;;;;16.66;51.65;100143.00;5051015;28;20931;-69
2022/06/01 04:29:18;;;;;;;2.20;1.83;;;;;;;16.68;51.90;100148.97;5048823;28;20447;-70
2022/06/01 04:31:44;;;;;;;2.43;1.70;;;;;;;16.68;52.12;100148.16;5044528;28;20409;-70
2022/06/01 04:34:10;;;;;;;1.60;1.50;;;;;;;16.67;52.06;100152.00;5048256;28;20738;-70
2022/06/01 04:36:35;;;;;;;3.20;1.87;;;;;;;16.62;52.22;100154.81;5043138;28;20424;-69
2022/06/01 04:39:00;;;;;;;3.25;1.70;;;;;;;16.53;52.38;100149.94;5041203;28;20395;-70
2022/06/01 04:41:26;;;;;;;2.13;1.50;;;;;;;16.45;52.61;100150.59;5046414;28;20498;-70
2022/06/01 04:43:51;;;;;;;2.53;1.93;;;;;;;16.46;52.67;100149.50;5047556;28;20407;-70
2022/06/01 04:46:16;;;;;;;2.60;1.90;;;;;;;16.48;52.78;100149.19;5058860;28;20504;-70
2022/06/01 04:48:41;;;;;;;2.30;1.73;;;;;;;16.48;52.72;100147.28;5050578;28;20385;-70
2022/06/01 04:51:07;;;;;;;2.27;1.93;;;;;;;16.53;52.65;100155.41;5049614;28;20408;-70
2022/06/01 04:53:32;;;;;;;3.73;2.00;;;;;;;16.52;52.66;100152.97;5051040;28;20429;-70
2022/06/01 04:55:57;;;;;;;2.53;1.73;;;;;;;16.42;52.70;100151.19;5050730;28;20382;-70
2022/06/01 04:58:23;;;;;;;3.10;1.60;;;;;;;16.41;52.79;100149.53;5050787;28;20393;-70
2022/06/01 05:00:48;;;;;;;3.33;1.77;;;;;;;16.44;52.80;100142.66;5050213;28;20847;-70
2022/06/01 05:03:14;;;;;;;2.35;1.98;;;;;;;16.44;52.98;100140.75;5051124;28;20397;-70
2022/06/01 05:05:40;;;;;;;3.03;1.65;;;;;;;16.48;52.92;100144.53;5032463;28;20418;-72
2022/06/01 05:08:07;;;;;;;5.45;3.47;;;;;;;16.54;53.03;100146.09;5052290;28;20603;-72
2022/06/01 05:10:33;;;;;;;2.72;1.73;;;;;;;16.55;53.26;100145.03;5054521;28;20408;-73
2022/06/01 05:12:59;;;;;;;3.40;2.05;;;;;;;16.57;53.38;100155.66;5052827;28;20791;-70
2022/06/01 05:15:24;;;;;;;4.67;1.90;;;;;;;16.62;53.14;100152.88;5048565;28;20413;-70
2022/06/01 05:17:49;;;;;;;2.60;2.17;;;;;;;16.63;53.23;100148.25;5054745;28;20393;-70
2022/06/01 05:20:15;;;;;;;2.85;2.08;;;;;;;16.58;53.40;100152.66;5052590;28;20595;-70
2022/06/01 05:22:41;;;;;;;1.70;1.60;;;;;;;16.53;53.64;100157.34;5048392;28;20917;-71
2022/06/01 05:25:08;;;;;;;4.13;1.70;;;;;;;16.58;53.80;100154.56;5035393;28;20420;-71
2022/06/01 05:27:34;;;;;;;2.37;2.00;;;;;;;16.63;53.84;100151.75;5054384;28;20474;-71
2022/06/01 05:30:00;;;;;;;2.70;1.80;;;;;;;16.61;53.91;100159.47;5053351;28;20448;-71
2022/06/01 05:32:26;;;;;;;2.70;2.03;;;;;;;16.62;54.22;100152.06;5053511;28;20393;-71
2022/06/01 05:34:51;;;;;;;2.47;1.80;;;;;;;16.56;54.38;100159.53;5052171;28;20409;-70
2022/06/01 05:37:16;;;;;;;4.10;2.00;;;;;;;16.46;54.94;100154.97;5041021;28;20582;-71
2022/06/01 05:39:41;;;;;;;3.10;2.08;;;;;;;16.48;55.04;100157.38;5033697;28;20514;-72
2022/06/01 05:42:07;;;;;;;2.50;2.30;;;;;;;16.46;55.22;100160.44;5049722;28;20409;-71
2022/06/01 05:44:32;;;;;;;4.57;2.50;;;;;;;16.54;55.17;100161.69;5051821;28;20472;-70
2022/06/01 05:47:00;;;;;;;3.50;2.30;;;;;;;16.59;55.32;100156.22;5046936;28;20886;-70
2022/06/01 05:49:26;;;;;;;4.30;2.38;;;;;;;16.63;55.22;100153.72;5045743;28;20429;-70
2022/06/01 05:51:51;;;;;;;2.90;2.20;;;;;;;16.65;55.53;100157.78;5036188;28;20455;-71
2022/06/01 05:54:17;;;;;;;2.65;2.20;;;;;;;16.69;55.50;100150.63;5053846;28;20396;-71
2022/06/01 05:56:42;;;;;;;3.70;2.90;;;;;;;16.77;55.41;100160.09;5052645;28;20393;-70
2022/06/01 05:59:08;;;;;;;2.53;2.33;;;;;;;16.79;55.95;100161.44;5053503;28;20405;-70
2022/06/01 06:01:33;;;;;;;5.50;2.83;;;;;;;16.77;56.28;100163.63;5053355;28;20405;-70
2022/06/01 06:03:58;;;;;;;2.67;2.47;;;;;;;16.71;56.61;100159.34;5049318;28;20416;-70
2022/06/01 06:06:24;;;;;;;2.53;2.33;;;;;;;16.70;56.58;100157.69;5052249;28;20463;-71
2022/06/01 06:09:02;;;;;;;3.63;2.20;;;;;;;16.78;56.54;100170.75;5046812;28;20442;-70
2022/06/01 06:11:34;;;;;;;7.00;2.22;;;;;;;16.76;56.80;100166.69;5029347;28;20452;-70
2022/06/01 06:14:00;;;;;;;2.70;2.50;;;;;;;16.71;57.03;100169.47;5029114;28;20806;-70
2022/06/01 06:16:27;;;;;;;3.80;2.13;;;;;;;16.77;56.66;100165.56;5027772;28;20417;-70
2022/06/01 06:18:56;;;;;;;4.90;2.67;;;;;;;16.86;56.64;100169.28;5031514;28;21377;-70
2022/06/01 06:21:22;;;;;;;3.50;2.38;;;;;;;16.92;56.81;100163.47;5030028;28;20829;-71
2022/06/01 06:23:48;;;;;;;2.45;2.20;;;;;;;16.89;57.23;100174.19;5029548;28;20476;-70
2022/06/01 06:26:13;;;;;;;4.13;2.70;;;;;;;16.80;57.91;100176.72;5027525;28;20415;-71
2022/06/01 06:28:38;;;;;;;2.50;2.30;;;;;;;16.74;58.36;100182.56;5028571;28;20900;-71
2022/06/01 06:31:04;;;;;;;6.53;2.47;;;;;;;16.81;58.28;100178.38;5028122;28;20466;-71
2022/06/01 06:33:29;;;;;;;11.10;2.70;;;;;;;16.95;58.03;100173.81;5030404;28;20413;-71
2022/06/01 06:36:07;;;;;;;5.03;2.50;;;;;;;17.00;58.25;100184.69;5035156;28;20844;-71
2022/06/01 06:38:35;;;;;;;3.25;2.47;;;;;;;17.11;57.88;100182.63;5031193;28;20861;-70
2022/06/01 06:41:02;;;;;;;2.78;2.58;;;;;;;17.14;58.02;100173.84;5046047;28;20474;-71
2022/06/01 06:43:28;;;;;;;7.13;3.10;;;;;;;17.19;57.72;100176.47;5052796;28;20386;-71
2022/06/01 06:46:02;;;;;;;3.07;2.30;;;;;;;17.19;57.63;100176.47;5052685;28;20876;-71
2022/06/01 06:48:28;;;;;;;3.70;2.40;;;;;;;17.24;57.82;100183.81;5052938;28;20394;-71
2022/06/01 06:50:54;;;;;;;2.97;2.28;;;;;;;17.26;58.08;100179.66;5038894;28;20403;-70
2022/06/01 06:53:19;;;;;;;2.63;2.00;;;;;;;17.32;58.04;100188.66;5027065;28;20403;-70
2022/06/01 06:55:45;;;;;;;2.40;2.20;;;;;;;17.35;57.80;100179.84;5027777;28;20403;-71
2022/06/01 06:58:11;;;;;;;2.33;2.03;;;;;;;17.42;57.38;100183.03;5051821;28;20403;-71
2022/06/01 07:00:37;;;;;;;4.55;2.50;;;;;;;17.41;56.56;100182.22;5051907;28;20413;-71
2022/06/01 07:03:03;;;;;;;2.28;2.08;;;;;;;17.43;56.19;100177.25;5051971;28;20406;-70
2022/06/01 07:08:12;;;;;;;4.70;2.45;;;;;;;17.57;54.68;100183.63;5030158;28;20948;-70
2022/06/01 07:10:38;;;;;;;2.47;2.17;;;;;;;17.60;54.69;100188.53;5049759;28;20397;-70
2022/06/01 07:13:03;;;;;;;2.83;1.93;;;;;;;17.63;54.25;100189.84;5032465;28;20459;-70
2022/06/01 07:15:28;;;;;;;5.00;2.00;;;;;;;17.70;53.17;100190.28;5047357;28;20528;-70
2022/06/01 07:17:54;;;;;;;3.60;1.80;;;;;;;17.75;52.50;100189.41;5032160;28;20413;-70
2022/06/01 07:20:20;;;;;;;2.40;1.77;;;;;;;17.79;52.02;100177.53;5035344;28;22046;-70
2022/06/01 07:22:46;;;;;;;1.80;1.70;;;;;;;17.84;51.31;100177.47;5034940;28;20411;-70
2022/06/01 07:25:11;;;;;;;1.80;1.70;;;;;;;17.89;50.95;100182.84;5028898;28;20964;-70
2022/06/01 07:27:37;;;;;;;3.37;1.70;;;;;;;17.92;50.64;100184.97;5027490;28;20407;-70
2022/06/01 07:30:06;;;;;;;4.95;1.80;;;;;;;17.97;50.67;100187.66;5032686;28;20477;-70
2022/06/01 07:32:32;;;;;;;3.25;1.35;;;;;;;18.01;49.96;100193.34;5037089;28;20393;-70
2022/06/01 07:34:57;;;;;;;2.30;1.20;;;;;;;18.08;49.16;100191.00;5040310;28;21081;-70
2022/06/01 07:43:06;;;;;;;1.88;1.33;;;;;;;18.27;47.68;100191.78;5051879;28;20815;-70
2022/06/01 07:45:38;;;;;;;1.73;1.63;;;;;;;18.31;47.12;100189.25;5042245;28;20409;-70
2022/06/01 07:48:05;;;;;;;1.70;1.27;;;;;;;18.39;47.25;100199.50;5049619;28;20844;-70
2022/06/01 07:50:31;;;;;;;1.30;1.23;;;;;;;18.44;46.38;100196.69;5044578;28;20474;-71
2022/06/01 07:52:58;;;;;;;2.63;1.10;;;;;;;18.47;45.21;100202.38;5031578;28;20409;-72
2022/06/01 07:55:23;;;;;;;5.10;1.43;;;;;;;18.52;45.40;100196.00;5029962;28;20450;-70
2022/06/01 07:57:48;;;;;;;1.58;1.17;;;;;;;18.56;45.47;100191.53;5036513;28;20572;-70
2022/06/01 08:00:14;;;;;;;1.70;1.30;;;;;;;18.57;45.04;100180.25;5044951;28;21363;-70
2022/06/01 08:02:39;;;;;;;4.57;3.50;;;;;;;18.63;45.35;100189.22;5034559;28;20411;-70
2022/06/01 08:05:06;;;;;;;1.73;1.60;;;;;;;18.65;44.75;100184.22;5027486;28;20425;-70
2022/06/01 08:07:33;;;;;;;1.10;0.70;;;;;;;18.73;43.89;100188.19;5031037;28;20871;-70
2022/06/01 08:09:59;;;;;;;2.05;1.00;;;;;;;18.79;43.72;100189.72;5051386;28;20392;-70
2022/06/01 08:15:09;;;;;;;2.10;1.20;;;;;;;18.89;43.58;100200.50;5029200;28;20687;-69
2022/06/01 08:17:34;;;;;;;3.47;0.80;;;;;;;18.93;43.37;100201.50;5031458;28;20890;-70
2022/06/01 08:20:00;;;;;;;1.07;0.80;;;;;;;18.97;43.13;100208.00;5037578;28;20401;-72
2022/06/01 08:22:25;;;;;;;1.42;1.02;;;;;;;19.02;42.86;100197.75;5025501;28;20418;-69
2022/06/01 08:24:51;;;;;;;1.43;0.73;;;;;;;19.08;42.52;100204.75;5027546;28;20403;-69
2022/06/01 08:27:16;;;;;;;2.27;1.00;;;;;;;19.15;42.71;100204.34;5032143;28;20417;-69
2022/06/01 08:29:42;;;;;;;2.17;0.70;;;;;;;19.21;42.44;100197.59;5028361;28;20419;-69
2022/06/01 08:32:08;;;;;;;5.10;0.87;;;;;;;19.26;42.71;100203.00;5028185;28;20656;-69
2022/06/01 08:34:35;;;;;;;5.32;1.02;;;;;;;19.36;42.19;100210.19;5037404;28;20415;-69
2022/06/01 08:37:00;;;;;;;2.42;1.00;;;;;;;19.42;42.08;100207.06;5026455;28;20414;-71
2022/06/01 08:39:26;;;;;;;2.23;1.07;;;;;;;19.50;41.89;100198.06;5031695;28;20462;-69
2022/06/01 08:41:51;;;;;;;1.77;1.05;;;;;;;19.57;42.07;100203.13;5030412;28;20405;-69
2022/06/01 08:44:35;;;;;;;3.20;1.00;;;;;;;19.66;41.96;100202.06;5054735;28;20404;-69
2022/06/01 08:47:13;;;;;;;1.48;0.90;;;;;;;19.74;41.96;100203.28;5055206;28;20491;-69
2022/06/01 08:49:39;;;;;;;4.47;1.02;;;;;;;19.83;41.34;100195.91;5055254;28;20859;-69
2022/06/01 08:52:06;;;;;;;2.83;0.80;;;;;;;19.92;40.22;100212.47;5055292;28;20472;-69
2022/06/01 08:54:31;;;;;;;2.42;0.85;;;;;;;19.94;39.54;100216.53;5044190;28;20395;-69
2022/06/01 08:57:07;;;;;;;1.60;0.70;;;;;;;20.00;39.88;100223.53;5032475;28;20405;-69
2022/06/01 09:00:07;;;;;;;0.90;0.60;;;;;;;20.11;40.14;100221.34;5033572;28;20431;-69
2022/06/01 09:02:39;;;;;;;5.55;1.00;;;;;;;20.20;39.76;100211.19;5023198;28;20405;-71
2022/06/01 09:05:11;;;;;;;1.20;0.90;;;;;;;20.30;39.97;100216.47;5029998;28;20431;-70
2022/06/01 09:08:01;;;;;;;1.50;1.00;;;;;;;20.46;39.21;100208.63;5019996;28;20419;-71
2022/06/01 09:10:57;;;;;;;2.03;0.88;;;;;;;20.50;39.64;100209.63;5039903;28;20426;-71
2022/06/01 09:13:28;;;;;;;4.35;1.10;;;;;;;20.59;39.15;100215.97;5034753;28;20416;-71
2022/06/01 09:15:59;;;;;;;1.70;1.25;;;;;;;20.69;38.80;100216.50;5030312;28;20427;-71
2022/06/01 09:18:28;;;;;;;2.45;0.85;;;;;;;20.79;38.95;100198.06;5034085;28;20411;-71
2022/06/01 09:23:38;;;;;;;1.58;0.70;;;;;;;20.95;38.23;100208.34;5030468;28;20762;-71
2022/06/01 09:26:05;;;;;;;1.73;0.90;;;;;;;21.01;37.95;100212.56;5030808;28;20422;-71
2022/06/01 09:28:39;;;;;;;2.63;1.13;;;;;;;21.08;38.17;100215.66;5050691;28;20420;-71
2022/06/01 09:31:28;;;;;;;1.97;0.90;;;;;;;21.23;37.96;100208.13;5042761;28;20398;-71
2022/06/01 09:34:19;;;;;;;0.80;0.80;;;;;;;21.38;38.27;100215.91;5032778;28;20437;-71
2022/06/01 09:37:04;;;;;;;1.80;0.60;;;;;;;21.54;37.97;100228.91;5049800;28;20413;-71
2022/06/01 09:39:30;;;;;;;2.35;0.60;;;;;;;21.67;37.98;100219.66;5035854;28;21173;-71
2022/06/01 09:42:16;;;;;;;3.05;0.80;;;;;;;21.81;37.87;100210.41;5031920;28;20465;-71
2022/06/01 09:44:48;;;;;;;4.50;0.90;;;;;;;21.89;37.11;100215.13;5031867;28;20403;-72
2022/06/01 09:47:43;;;;;;;1.90;0.90;;;;;;;22.03;37.76;100219.34;5030800;28;20429;-72
2022/06/01 09:50:26;;;;;;;2.00;0.75;;;;;;;22.19;38.28;100214.97;5031267;28;20507;-72
2022/06/01 09:53:11;;;;;;;2.28;0.70;;;;;;;22.57;37.29;100217.78;5037497;28;20408;-72
2022/06/01 09:55:56;;;;;;;1.63;0.88;;;;;;;22.94;35.84;100221.72;5022195;28;20417;-71
2022/06/01 10:06:50;;;;;;;1.60;0.70;;;;;;;26.18;31.72;100208.44;5052462;28;20421;-69
2022/06/01 10:09:25;;;;;;;2.33;0.73;;;;;;;27.10;30.21;100208.84;5053729;28;20397;-72
2022/06/01 10:11:51;;;;;;;1.15;0.80;;;;;;;27.88;28.36;100207.00;5053472;28;20388;-70
2022/06/01 10:14:31;;;;;;;3.50;0.77;;;;;;;28.36;27.73;100198.03;5052025;28;20409;-71
2022/06/01 10:17:08;;;;;;;0.60;0.47;;;;;;;28.78;27.76;100204.38;5046697;28;20388;-70
2022/06/01 10:19:56;;;;;;;1.70;0.60;;;;;;;29.13;26.82;100203.34;5042923;28;20391;-70
2022/06/01 10:22:40;;;;;;;1.45;0.65;;;;;;;29.23;27.44;100203.50;5052554;28;20401;-70
2022/06/01 10:25:14;;;;;;;1.20;0.60;;;;;;;29.49;26.22;100199.91;5052265;28;20393;-70
2022/06/01 10:28:22;;;;;;;3.05;0.80;;;;;;;29.50;26.76;100201.53;5048704;28;20815;-70
2022/06/01 10:30:54;;;;;;;1.40;0.70;;;;;;;30.11;25.35;100194.72;5043980;28;20848;-71
2022/06/01 10:33:42;;;;;;;0.87;0.60;;;;;;;30.58;24.89;100197.66;5053583;28;20385;-70
2022/06/01 10:36:43;;;;;;;2.00;0.60;;;;;;;30.59;24.29;100193.66;5040706;28;20409;-71
2022/06/01 10:39:21;;;;;;;0.95;0.50;;;;;;;30.66;24.51;100190.91;5006355;28;20471;-71
2022/06/01 10:42:00;;;;;;;1.30;0.70;;;;;;;30.92;24.15;100195.53;5026732;28;20567;-70
2022/06/01 10:44:44;;;;;;;1.67;0.55;;;;;;;31.25;23.96;100200.22;5029646;28;20739;-71
2022/06/01 10:47:18;;;;;;;3.90;0.77;;;;;;;31.22;24.18;100201.75;5027999;28;20544;-70
2022/06/01 10:49:52;;;;;;;0.70;0.70;;;;;;;31.16;23.59;100203.34;5030669;28;20514;-71
2022/06/01 10:52:39;;;;;;;1.95;1.13;;;;;;;31.37;23.63;100203.47;5029103;28;20405;-70
2022/06/01 10:55:12;;;;;;;1.05;0.60;;;;;;;31.71;23.06;100204.06;5030094;28;20766;-71
2022/06/01 10:57:39;;;;;;;3.53;0.77;;;;;;;32.26;22.53;100201.91;5011856;28;20423;-71
2022/06/01 11:00:12;;;;;;;0.55;0.52;;;;;;;32.43;22.05;100199.53;5033714;28;20409;-71
2022/06/01 11:02:58;;;;;;;1.05;0.60;;;;;;;32.86;21.68;100198.38;5047849;28;20408;-71
2022/06/01 11:05:31;;;;;;;1.80;0.70;;;;;;;32.62;20.93;100208.41;5026922;28;20898;-71
2022/06/01 11:08:23;;;;;;;0.77;0.47;;;;;;;32.98;20.94;100200.78;5052177;28;20408;-72
2022/06/01 11:11:14;;;;;;;0.50;0.50;;;;;;;31.57;21.61;100194.81;5051936;28;20475;-72
2022/06/01 11:14:03;;;;;;;0.88;0.80;;;;;;;31.64;21.60;100189.25;5051825;28;20405;-72
2022/06/01 11:16:53;;;;;;;0.85;0.82;;;;;;;32.53;20.95;100193.94;5052160;28;20405;-71
2022/06/01 11:19:41;;;;;;;1.90;0.57;;;;;;;33.12;20.38;100180.34;5047624;28;20401;-71
2022/06/01 11:22:12;;;;;;;1.70;0.45;;;;;;;32.85;21.26;100208.81;5047673;28;20467;-71
2022/06/01 11:25:09;;;;;;;2.45;0.60;;;;;;;32.59;20.47;100194.38;5043749;28;20832;-71
2022/06/01 11:27:55;;;;;;;1.00;0.60;;;;;;;32.42;20.92;100186.69;5049806;28;20423;-70
2022/06/01 11:30:26;;;;;;;1.30;0.52;;;;;;;32.69;19.89;100179.53;5048502;28;20549;-70
2022/06/01 11:33:15;;;;;;;5.05;0.75;;;;;;;32.62;19.65;100183.16;5052382;28;20388;-70
2022/06/01 11:36:08;;;;;;;3.97;0.75;;;;;;;33.00;19.02;100184.31;5054764;28;20636;-70
2022/06/01 11:38:40;;;;;;;0.52;0.40;;;;;;;33.12;18.99;100178.34;5049955;28;20474;-70
2022/06/01 11:41:13;;;;;;;0.35;0.30;;;;;;;33.47;18.98;100173.81;5050478;28;20405;-71
2022/06/01 11:43:56;;;;;;;3.13;0.73;;;;;;;33.46;18.74;100173.00;5032286;28;20738;-70
2022/06/01 11:46:51;;;;;;;1.03;0.40;;;;;;;33.54;18.49;100162.56;5037171;28;20520;-70
2022/06/01 11:49:36;;;;;;;1.20;0.53;;;;;;;33.48;18.25;100169.81;5043497;28;20835;-71
2022/06/01 11:52:20;;;;;;;0.82;0.40;;;;;;;33.17;17.96;100174.31;5031197;28;20407;-71
2022/06/01 11:55:14;;;;;;;0.60;0.40;;;;;;;32.80;18.46;100181.13;5040491;28;20409;-71
2022/06/01 11:58:00;;;;;;;1.40;0.40;;;;;;;32.91;18.42;100158.66;5036817;28;20495;-70
2022/06/01 12:00:34;;;;;;;2.60;0.60;;;;;;;32.82;17.89;100177.94;5037454;28;20401;-70
2022/06/01 12:03:20;;;;;;;0.88;0.40;;;;;;;32.66;18.29;100169.13;5033362;28;20416;-70
2022/06/01 12:06:03;;;;;;;1.00;0.30;;;;;;;32.39;18.82;100161.06;5039875;28;20434;-71
2022/06/01 12:08:36;;;;;;;0.35;0.35;;;;;;;32.45;18.67;100155.84;5050198;28;21704;-71
2022/06/01 12:11:04;;;;;;;0.40;0.40;;;;;;;32.19;18.98;100161.81;5051767;28;20389;-72
2022/06/01 12:13:36;;;;;;;3.40;0.50;;;;;;;32.70;19.36;100162.28;5033624;28;20411;-72